createdAt,value
2023-03-13T00:02:21.202Z,92143.25
2023-03-13T00:04:53.683Z,92141.91
2023-03-13T00:07:26.079Z,92149.34
2023-03-13T00:09:58.341Z,92147.78
2023-03-13T00:12:30.798Z,92141.66
2023-03-13T00:15:03.224Z,92150.34
2023-03-13T00:17:36.193Z,92149.34
2023-03-13T00:20:10.185Z,92147.00
2023-03-13T00:22:42.598Z,92147.78
2023-03-13T00:25:15.006Z,92155.00
2023-03-13T00:27:47.346Z,92156.56
2023-03-13T00:30:19.616Z,92154.88
2023-03-13T00:32:52.673Z,92160.06
2023-03-13T00:35:25.073Z,92159.53
2023-03-13T00:37:57.385Z,92155.84
2023-03-13T00:40:29.969Z,92158.75
2023-03-13T00:43:02.293Z,92157.31
2023-03-13T00:45:34.511Z,92155.97
2023-03-13T00:48:07.438Z,92152.94
2023-03-13T00:50:39.846Z,92153.72
2023-03-13T00:53:12.151Z,92158.06
2023-03-13T00:55:56.124Z,92148.69
2023-03-13T00:58:30.264Z,92152.03
2023-03-13T01:01:11.034Z,92156.38
2023-03-13T01:03:47.247Z,92151.13
2023-03-13T01:06:21.496Z,92150.13
2023-03-13T01:08:54.536Z,92134.97
2023-03-13T01:11:28.644Z,92132.88
2023-03-13T01:14:02.440Z,92131.31
2023-03-13T01:16:36.422Z,92136.22
2023-03-13T01:19:13.284Z,92137.94
2023-03-13T01:21:46.428Z,92137.25
2023-03-13T01:24:19.578Z,92144.53
2023-03-13T01:26:51.902Z,92155.88
2023-03-13T01:29:24.187Z,92151.75
2023-03-13T01:31:56.429Z,92153.66
2023-03-13T01:34:31.213Z,92154.66
2023-03-13T01:37:03.553Z,92157.22
2023-03-13T01:39:35.850Z,92155.09
2023-03-13T01:42:08.323Z,92153.47
2023-03-13T01:44:50.693Z,92154.13
2023-03-13T01:47:24.094Z,92159.59
2023-03-13T01:50:13.087Z,92163.16
2023-03-13T01:53:00.852Z,92158.31
2023-03-13T01:55:35.912Z,92160.16
2023-03-13T01:58:08.527Z,92157.66
2023-03-13T02:00:43.532Z,92161.56
2023-03-13T02:03:19.593Z,92157.75
2023-03-13T02:05:52.039Z,92151.50
2023-03-13T02:08:31.573Z,92152.06
2023-03-13T02:11:10.183Z,92143.44
2023-03-13T02:13:43.317Z,92153.34
2023-03-13T02:16:16.520Z,92160.16
2023-03-13T02:18:53.091Z,92167.97
2023-03-13T02:21:38.958Z,92167.25
2023-03-13T02:24:23.138Z,92172.34
2023-03-13T02:26:56.412Z,92176.91
2023-03-13T02:29:29.358Z,92180.00
2023-03-13T02:32:01.839Z,92179.59
2023-03-13T02:34:37.833Z,92187.97
2023-03-13T02:37:12.328Z,92194.28
2023-03-13T02:39:47.864Z,92191.22
2023-03-13T02:42:22.903Z,92194.63
2023-03-13T02:44:55.516Z,92213.25
2023-03-13T02:47:27.822Z,92205.25
2023-03-13T02:50:01.294Z,92211.91
2023-03-13T02:52:38.462Z,92221.69
2023-03-13T02:55:17.360Z,92213.31
2023-03-13T02:57:51.015Z,92218.41
2023-03-13T03:00:26.068Z,92216.41
2023-03-13T03:02:58.562Z,92216.22
2023-03-13T03:05:30.861Z,92209.91
2023-03-13T03:08:03.941Z,92211.28
2023-03-13T03:10:37.191Z,92214.81
2023-03-13T03:13:10.874Z,92222.38
2023-03-13T03:15:43.192Z,92224.16
2023-03-13T03:18:15.504Z,92220.81
2023-03-13T03:20:47.847Z,92222.44
2023-03-13T03:23:20.113Z,92248.88
2023-03-13T03:25:52.437Z,92253.25
2023-03-13T03:28:25.346Z,92255.25
2023-03-13T03:30:57.647Z,92264.66
2023-03-13T03:33:29.922Z,92258.59
2023-03-13T03:36:04.857Z,92257.00
2023-03-13T03:38:39.020Z,92243.91
2023-03-13T03:41:13.697Z,92262.50
2023-03-13T03:43:47.051Z,92266.34
2023-03-13T03:46:21.729Z,92272.44
2023-03-13T03:48:54.321Z,92275.78
2023-03-13T03:51:27.295Z,92276.59
2023-03-13T03:53:59.675Z,92274.66
2023-03-13T03:56:34.569Z,92260.34
2023-03-13T03:59:07.748Z,92261.50
2023-03-13T04:02:02.026Z,92280.28
2023-03-13T04:04:35.723Z,92281.72
2023-03-13T04:07:37.071Z,92282.72
2023-03-13T04:10:10.795Z,92293.09
2023-03-13T04:12:48.516Z,92292.88
2023-03-13T04:15:21.790Z,92301.41
2023-03-13T04:17:54.403Z,92300.41
2023-03-13T04:20:28.438Z,92308.69
2023-03-13T04:23:00.797Z,92307.88
2023-03-13T04:25:33.041Z,92302.16
2023-03-13T04:28:06.708Z,92304.78
2023-03-13T04:30:45.669Z,92312.09
2023-03-13T04:33:38.247Z,92314.63
2023-03-13T04:36:33.494Z,92325.75
2023-03-13T04:39:28.593Z,92327.97
2023-03-13T04:42:16.280Z,92337.75
2023-03-13T04:45:07.591Z,92345.81
2023-03-13T04:47:49.821Z,92348.75
2023-03-13T04:50:34.335Z,92350.31
2023-03-13T04:53:38.893Z,92344.84
2023-03-13T04:56:43.539Z,92351.50
2023-03-13T04:59:25.437Z,92351.31
2023-03-13T05:02:33.418Z,92354.09
2023-03-13T05:05:33.657Z,92353.09
2023-03-13T05:08:23.588Z,92349.56
2023-03-13T05:11:05.808Z,92348.94
2023-03-13T05:14:01.416Z,92356.41
2023-03-13T05:16:59.728Z,92354.09
2023-03-13T05:19:50.685Z,92354.09
2023-03-13T05:22:41.300Z,92369.16
2023-03-13T05:25:20.502Z,92369.19
2023-03-13T05:27:52.864Z,92370.94
2023-03-13T05:30:43.948Z,92370.56
2023-03-13T05:33:32.055Z,92373.31
2023-03-13T05:36:30.305Z,92367.59
2023-03-13T05:39:22.200Z,92375.66
2023-03-13T05:42:03.972Z,92385.25
2023-03-13T05:44:53.848Z,92392.72
2023-03-13T05:47:39.041Z,92371.91
2023-03-13T05:50:22.231Z,92381.72
2023-03-13T05:53:05.136Z,92382.94
2023-03-13T05:56:01.474Z,92389.00
2023-03-13T05:58:46.015Z,92387.59
2023-03-13T06:01:53.766Z,92390.69
2023-03-13T06:04:34.859Z,92385.00
2023-03-13T06:07:07.455Z,92393.00
2023-03-13T06:09:40.324Z,92400.81
2023-03-13T06:12:14.592Z,92409.59
2023-03-13T06:14:46.856Z,92405.22
2023-03-13T06:17:29.003Z,92395.13
2023-03-13T06:20:01.572Z,92394.00
2023-03-13T06:22:34.036Z,92405.56
2023-03-13T06:25:07.325Z,92394.81
2023-03-13T06:27:41.673Z,92401.72
2023-03-13T06:30:14.219Z,92408.66
2023-03-13T06:32:46.722Z,92398.72
2023-03-13T06:35:19.138Z,92404.50
2023-03-13T06:37:51.504Z,92390.72
2023-03-13T06:40:23.753Z,92384.38
2023-03-13T06:42:56.710Z,92388.50
2023-03-13T06:45:29.030Z,92384.88
2023-03-13T06:48:01.324Z,92404.25
2023-03-13T06:50:37.406Z,92399.91
2023-03-13T06:53:15.344Z,92397.81
2023-03-13T06:55:48.634Z,92387.56
2023-03-13T06:58:31.972Z,92392.97
2023-03-13T07:01:06.558Z,92382.41
2023-03-13T07:03:40.715Z,92398.16
2023-03-13T07:06:13.077Z,92397.72
2023-03-13T07:08:45.435Z,92399.63
2023-03-13T07:11:18.253Z,92405.66
2023-03-13T07:14:00.541Z,92406.22
2023-03-13T07:16:42.731Z,92400.81
2023-03-13T07:19:15.466Z,92400.56
2023-03-13T07:21:48.971Z,92383.09
2023-03-13T07:24:21.457Z,92382.59
2023-03-13T07:27:04.891Z,92397.63
2023-03-13T07:29:40.159Z,92381.06
2023-03-13T07:32:12.422Z,92395.44
2023-03-13T07:34:44.768Z,92387.41
2023-03-13T07:37:17.402Z,92390.78
2023-03-13T07:39:49.688Z,92396.38
2023-03-13T07:42:22.005Z,92389.03
2023-03-13T07:44:54.937Z,92386.47
2023-03-13T07:47:27.261Z,92399.66
2023-03-13T07:49:59.533Z,92395.78
2023-03-13T07:52:31.973Z,92398.91
2023-03-13T07:55:05.452Z,92391.53
2023-03-13T07:57:37.751Z,92387.81
2023-03-13T08:00:17.910Z,92386.84
2023-03-13T08:02:50.164Z,92383.34
2023-03-13T08:05:22.440Z,92379.00
2023-03-13T08:07:54.779Z,92381.06
2023-03-13T08:10:27.236Z,92385.81
2023-03-13T08:12:59.622Z,92382.09
2023-03-13T08:15:32.580Z,92384.31
2023-03-13T08:18:04.998Z,92385.81
2023-03-13T08:20:37.443Z,92383.28
2023-03-13T08:23:09.765Z,92389.78
2023-03-13T08:25:42.130Z,92393.06
2023-03-13T08:28:14.540Z,92395.31
2023-03-13T08:30:47.679Z,92407.00
2023-03-13T08:33:20.006Z,92401.59
2023-03-13T08:35:52.341Z,92404.91
2023-03-13T08:38:24.647Z,92407.19
2023-03-13T08:40:57.403Z,92406.19
2023-03-13T08:43:29.701Z,92397.13
2023-03-13T08:46:02.700Z,92392.91
2023-03-13T08:48:35.239Z,92392.75
2023-03-13T08:51:09.178Z,92386.31
2023-03-13T08:53:43.934Z,92391.53
2023-03-13T08:56:18.668Z,92389.47
2023-03-13T08:58:52.225Z,92394.84
2023-03-13T09:01:26.723Z,92391.19
2023-03-13T09:04:03.242Z,92397.09
2023-03-13T09:06:37.972Z,92395.38
2023-03-13T09:09:10.908Z,92395.88
2023-03-13T09:11:43.239Z,92398.34
2023-03-13T09:14:15.679Z,92397.19
2023-03-13T09:16:49.134Z,92394.19
2023-03-13T09:19:21.511Z,92391.50
2023-03-13T09:21:53.811Z,92387.84
2023-03-13T09:24:26.225Z,92379.88
2023-03-13T09:27:01.356Z,92382.88
2023-03-13T09:29:37.416Z,92383.94
2023-03-13T09:32:10.806Z,92389.47
2023-03-13T09:34:43.105Z,92389.56
2023-03-13T09:37:15.403Z,92393.13
2023-03-13T09:39:48.385Z,92366.63
2023-03-13T09:42:24.136Z,92387.97
2023-03-13T09:45:03.416Z,92388.03
2023-03-13T09:47:42.338Z,92378.94
2023-03-13T09:50:18.577Z,92372.56
2023-03-13T09:52:55.634Z,92370.34
2023-03-13T09:55:32.695Z,92374.28
2023-03-13T09:58:13.068Z,92365.56
2023-03-13T10:00:51.067Z,92365.00
2023-03-13T10:03:29.119Z,92374.00
2023-03-13T10:06:05.632Z,92363.66
2023-03-13T10:08:37.973Z,92376.34
2023-03-13T10:11:16.902Z,92374.09
2023-03-13T10:13:55.377Z,92366.13
2023-03-13T10:16:34.629Z,92352.94
2023-03-13T10:19:14.606Z,92342.00
2023-03-13T10:21:51.237Z,92341.03
2023-03-13T10:24:32.051Z,92339.06
2023-03-13T10:27:04.359Z,92343.56
2023-03-13T10:29:38.040Z,92332.94
2023-03-13T10:32:13.521Z,92334.03
2023-03-13T10:34:52.006Z,92329.53
2023-03-13T10:37:26.755Z,92325.09
2023-03-13T10:40:12.869Z,92317.31
2023-03-13T10:42:45.792Z,92319.16
2023-03-13T10:45:23.924Z,92314.47
2023-03-13T10:48:01.046Z,92297.53
2023-03-13T10:50:35.069Z,92301.31
2023-03-13T10:53:31.502Z,92302.25
2023-03-13T10:56:11.365Z,92305.88
2023-03-13T10:58:46.089Z,92300.81
2023-03-13T11:01:22.103Z,92308.69
2023-03-13T11:03:56.385Z,92295.22
2023-03-13T11:06:31.273Z,92293.75
2023-03-13T11:09:11.677Z,92287.63
2023-03-13T11:11:46.679Z,92278.53
2023-03-13T11:14:21.021Z,92283.16
2023-03-13T11:16:55.365Z,92286.03
2023-03-13T11:19:42.994Z,92288.31
2023-03-13T11:22:38.306Z,92280.16
2023-03-13T11:25:20.601Z,92277.94
2023-03-13T11:28:08.095Z,92279.47
2023-03-13T11:30:54.299Z,92277.66
2023-03-13T11:33:38.809Z,92265.06
2023-03-13T11:36:19.216Z,92265.97
2023-03-13T11:38:55.266Z,92256.00
2023-03-13T11:41:42.027Z,92248.72
2023-03-13T11:44:23.496Z,92251.97
2023-03-13T11:47:12.627Z,92242.03
2023-03-13T11:50:08.343Z,92242.38
2023-03-13T11:52:58.135Z,92230.25
2023-03-13T11:55:49.261Z,92232.59
2023-03-13T11:58:41.511Z,92231.94
2023-03-13T12:01:16.999Z,92225.38
2023-03-13T12:03:57.619Z,92221.50
2023-03-13T12:06:32.786Z,92221.72
2023-03-13T12:09:12.164Z,92217.56
2023-03-13T12:11:52.503Z,92205.94
2023-03-13T12:14:30.129Z,92213.56
2023-03-13T12:17:05.863Z,92198.34
2023-03-13T12:19:45.377Z,92197.25
2023-03-13T12:22:22.966Z,92199.41
2023-03-13T12:24:59.878Z,92203.41
2023-03-13T12:27:40.496Z,92204.19
2023-03-13T12:30:22.234Z,92201.88
2023-03-13T12:33:01.826Z,92198.47
2023-03-13T12:35:36.290Z,92195.44
2023-03-13T12:38:17.059Z,92195.47
2023-03-13T12:40:56.975Z,92191.34
2023-03-13T12:43:32.582Z,92195.59
2023-03-13T12:46:21.564Z,92200.75
2023-03-13T12:49:13.877Z,92195.72
2023-03-13T12:52:04.352Z,92189.06
2023-03-13T12:54:48.888Z,92196.13
2023-03-13T12:58:00.245Z,92207.69
2023-03-13T13:00:36.237Z,92203.09
2023-03-13T13:03:20.069Z,92208.13
2023-03-13T13:06:05.594Z,92202.38
2023-03-13T13:08:40.989Z,92207.63
2023-03-13T13:11:55.017Z,92206.97
2023-03-13T13:15:03.564Z,92202.91
2023-03-13T13:18:03.519Z,92205.34
2023-03-13T13:20:44.785Z,92201.78
2023-03-13T13:23:33.443Z,92197.78
2023-03-13T13:26:45.467Z,92189.34
2023-03-13T13:29:57.225Z,92191.97
2023-03-13T13:32:44.012Z,92194.59
2023-03-13T13:35:31.234Z,92182.97
2023-03-13T13:38:39.452Z,92187.66
2023-03-13T13:41:37.476Z,92173.38
2023-03-13T13:44:29.555Z,92181.53
2023-03-13T13:47:02.799Z,92172.56
2023-03-13T13:49:50.893Z,92184.72
2023-03-13T13:52:36.437Z,92179.84
2023-03-13T13:55:32.848Z,92185.88
2023-03-13T13:58:11.398Z,92187.84
2023-03-13T14:00:47.826Z,92181.25
2023-03-13T14:03:23.136Z,92168.50
2023-03-13T14:06:00.116Z,92179.00
2023-03-13T14:08:38.532Z,92178.19
2023-03-13T14:11:24.450Z,92176.34
2023-03-13T14:14:09.030Z,92175.84
2023-03-13T14:16:45.604Z,92179.47
2023-03-13T14:19:26.806Z,92173.50
2023-03-13T14:22:01.346Z,92174.44
2023-03-13T14:24:34.907Z,92171.34
2023-03-13T14:27:15.121Z,92168.34
2023-03-13T14:30:00.220Z,92175.63
2023-03-13T14:32:33.380Z,92167.66
2023-03-13T14:35:07.244Z,92173.75
2023-03-13T14:37:42.804Z,92177.41
2023-03-13T14:40:24.817Z,92177.09
2023-03-13T14:42:59.028Z,92184.16
2023-03-13T14:45:33.108Z,92172.81
2023-03-13T14:48:16.994Z,92171.69
2023-03-13T14:50:59.670Z,92177.63
2023-03-13T14:53:52.621Z,92180.19
2023-03-13T14:56:34.757Z,92163.81
2023-03-13T14:59:16.803Z,92167.78
2023-03-13T15:01:58.752Z,92174.03
2023-03-13T15:04:51.613Z,92169.66
2023-03-13T15:07:26.057Z,92172.66
2023-03-13T15:10:00.143Z,92172.19
2023-03-13T15:12:43.670Z,92176.09
2023-03-13T15:15:16.259Z,92181.25
2023-03-13T15:17:48.975Z,92177.81
2023-03-13T15:20:22.338Z,92168.94
2023-03-13T15:22:54.609Z,92178.78
2023-03-13T15:25:26.877Z,92176.44
2023-03-13T15:27:59.862Z,92180.03
2023-03-13T15:30:32.349Z,92179.28
2023-03-13T15:33:04.759Z,92197.16
2023-03-13T15:35:37.102Z,92188.94
2023-03-13T15:38:13.872Z,92198.13
2023-03-13T15:40:46.514Z,92190.38
2023-03-13T15:43:21.081Z,92199.38
2023-03-13T15:45:53.607Z,92202.66
2023-03-13T15:48:27.582Z,92202.66
2023-03-13T15:51:03.309Z,92194.38
2023-03-13T15:53:36.163Z,92198.97
2023-03-13T15:56:15.039Z,92197.53
2023-03-13T15:58:48.581Z,92195.41
2023-03-13T16:01:22.361Z,92189.28
2023-03-13T16:03:55.877Z,92186.75
2023-03-13T16:06:30.587Z,92177.41
2023-03-13T16:09:05.902Z,92173.25
2023-03-13T16:11:38.259Z,92175.16
2023-03-13T16:14:11.318Z,92171.28
2023-03-13T16:16:43.675Z,92175.78
2023-03-13T16:19:16.190Z,92166.59
2023-03-13T16:21:49.052Z,92164.47
2023-03-13T16:24:21.480Z,92163.25
2023-03-13T16:26:53.861Z,92170.06
2023-03-13T16:29:26.966Z,92173.72
2023-03-13T16:31:59.254Z,92173.72
2023-03-13T16:34:31.572Z,92172.94
2023-03-13T16:37:11.231Z,92181.97
2023-03-13T16:39:44.462Z,92184.50
2023-03-13T16:42:16.775Z,92195.59
2023-03-13T16:44:49.819Z,92195.03
2023-03-13T16:47:27.212Z,92194.94
2023-03-13T16:49:59.528Z,92201.41
2023-03-13T16:52:31.849Z,92209.31
2023-03-13T16:55:04.853Z,92207.06
2023-03-13T16:57:37.242Z,92201.44
2023-03-13T17:00:15.341Z,92212.69
2023-03-13T17:02:47.855Z,92214.59
2023-03-13T17:05:20.518Z,92215.22
2023-03-13T17:07:53.563Z,92205.25
2023-03-13T17:10:28.100Z,92220.84
2023-03-13T17:13:01.001Z,92223.25
2023-03-13T17:15:34.066Z,92223.16
2023-03-13T17:18:06.553Z,92227.84
2023-03-13T17:20:39.006Z,92227.44
2023-03-13T17:23:11.307Z,92232.50
2023-03-13T17:25:46.755Z,92226.59
2023-03-13T17:28:19.084Z,92221.19
2023-03-13T17:30:52.083Z,92222.50
2023-03-13T17:33:24.390Z,92218.69
2023-03-13T17:35:57.046Z,92221.06
2023-03-13T17:38:29.505Z,92232.75
2023-03-13T17:41:01.944Z,92236.91
2023-03-13T17:43:34.877Z,92244.19
2023-03-13T17:46:17.190Z,92242.13
2023-03-13T17:48:51.898Z,92246.28
2023-03-13T17:51:26.572Z,92240.06
2023-03-13T17:53:59.179Z,92245.50
2023-03-13T17:56:35.646Z,92250.16
2023-03-13T17:59:13.031Z,92244.19
2023-03-13T18:01:46.160Z,92248.34
2023-03-13T18:04:18.519Z,92253.00
2023-03-13T18:06:50.913Z,92242.13
2023-03-13T18:09:23.222Z,92243.41
2023-03-13T18:11:55.903Z,92243.91
2023-03-13T18:14:28.331Z,92241.34
2023-03-13T18:17:01.650Z,92241.84
2023-03-13T18:19:34.023Z,92249.34
2023-03-13T18:22:06.731Z,92248.53
2023-03-13T18:24:39.207Z,92243.88
2023-03-13T18:27:13.514Z,92244.38
2023-03-13T18:29:48.277Z,92241.00
2023-03-13T18:32:21.347Z,92246.69
2023-03-13T18:34:53.766Z,92250.53
2023-03-13T18:37:27.985Z,92259.59
2023-03-13T18:40:01.609Z,92251.03
2023-03-13T18:42:33.991Z,92260.84
2023-03-13T18:45:07.789Z,92253.34
2023-03-13T18:47:40.742Z,92266.25
2023-03-13T18:50:24.319Z,92260.03
2023-03-13T18:52:59.069Z,92256.94
2023-03-13T18:55:31.471Z,92258.44
2023-03-13T18:58:03.860Z,92262.31
2023-03-13T19:00:36.521Z,92262.78
2023-03-13T19:03:09.631Z,92264.84
2023-03-13T19:05:42.135Z,92256.81
2023-03-13T19:08:14.481Z,92265.09
2023-03-13T19:10:47.037Z,92262.72
2023-03-13T19:13:19.434Z,92260.03
2023-03-13T19:15:51.779Z,92264.31
2023-03-13T19:18:24.752Z,92263.78
2023-03-13T19:20:57.964Z,92264.31
2023-03-13T19:23:30.224Z,92269.94
2023-03-13T19:26:02.674Z,92263.22
2023-03-13T19:28:34.994Z,92264.28
2023-03-13T19:31:07.380Z,92262.41
2023-03-13T19:33:40.622Z,92267.53
2023-03-13T19:36:13.959Z,92263.56
2023-03-13T19:38:46.222Z,92265.06
2023-03-13T19:41:18.585Z,92269.41
2023-03-13T19:43:50.964Z,92268.09
2023-03-13T19:46:25.316Z,92264.47
2023-03-13T19:49:00.135Z,92265.19
2023-03-13T19:51:32.662Z,92262.38
2023-03-13T19:54:05.182Z,92265.97
2023-03-13T19:56:38.967Z,92257.59
2023-03-13T19:59:15.092Z,92255.94
2023-03-13T20:01:47.785Z,92266.22
2023-03-13T20:04:20.975Z,92260.75
2023-03-13T20:06:53.352Z,92254.75
2023-03-13T20:09:25.766Z,92261.16
2023-03-13T20:11:58.157Z,92265.22
2023-03-13T20:14:30.405Z,92266.53
2023-03-13T20:17:03.057Z,92258.56
2023-03-13T20:19:35.994Z,92263.72
2023-03-13T20:22:09.045Z,92256.69
2023-03-13T20:24:56.964Z,92250.72
2023-03-13T20:27:29.221Z,92251.75
2023-03-13T20:30:02.301Z,92252.25
2023-03-13T20:32:34.792Z,92252.38
2023-03-13T20:35:12.215Z,92250.00
2023-03-13T20:37:44.593Z,92252.25
2023-03-13T20:40:17.052Z,92248.91
2023-03-13T20:42:49.450Z,92247.28
2023-03-13T20:45:21.715Z,92244.50
2023-03-13T20:47:54.439Z,92238.25
2023-03-13T20:50:27.607Z,92232.31
2023-03-13T20:52:59.916Z,92229.69
2023-03-13T20:55:32.451Z,92217.31
2023-03-13T20:58:04.864Z,92214.72
2023-03-13T21:00:37.148Z,92217.25
2023-03-13T21:03:09.784Z,92219.97
2023-03-13T21:05:43.384Z,92210.88
2023-03-13T21:08:15.654Z,92211.13
2023-03-13T21:10:48.050Z,92207.78
2023-03-13T21:13:20.454Z,92209.81
2023-03-13T21:15:59.800Z,92202.78
2023-03-13T21:18:32.185Z,92195.84
2023-03-13T21:21:06.965Z,92189.16
2023-03-13T21:23:39.364Z,92181.53
2023-03-13T21:26:12.839Z,92183.81
2023-03-13T21:28:45.144Z,92195.94
2023-03-13T21:31:19.006Z,92196.34
2023-03-13T21:33:51.424Z,92206.41
2023-03-13T21:36:24.535Z,92210.22
2023-03-13T21:38:57.060Z,92207.09
2023-03-13T21:41:29.432Z,92206.25
2023-03-13T21:44:02.354Z,92200.38
2023-03-13T21:46:34.778Z,92196.72
2023-03-13T21:49:07.079Z,92202.97
2023-03-13T21:51:40.140Z,92203.44
2023-03-13T21:54:12.393Z,92198.06
2023-03-13T21:56:44.672Z,92197.53
2023-03-13T21:59:17.349Z,92189.81
2023-03-13T22:01:49.704Z,92185.94
2023-03-13T22:04:22.076Z,92191.16
2023-03-13T22:06:55.302Z,92185.69
2023-03-13T22:09:27.728Z,92184.59
2023-03-13T22:12:00.190Z,92183.28
2023-03-13T22:14:32.846Z,92181.97
2023-03-13T22:17:05.235Z,92184.03
2023-03-13T22:19:37.650Z,92182.97
2023-03-13T22:22:10.665Z,92180.72
2023-03-13T22:24:43.213Z,92175.56
2023-03-13T22:27:16.879Z,92168.56
2023-03-13T22:29:49.169Z,92179.09
2023-03-13T22:32:21.435Z,92171.28
2023-03-13T22:34:53.812Z,92169.81
2023-03-13T22:37:26.950Z,92177.91
2023-03-13T22:39:59.280Z,92170.19
2023-03-13T22:42:31.538Z,92174.84
2023-03-13T22:45:04.617Z,92164.75
2023-03-13T22:47:37.103Z,92167.84
2023-03-13T22:50:11.242Z,92166.06
2023-03-13T22:52:44.178Z,92170.72
2023-03-13T22:55:16.652Z,92168.47
2023-03-13T22:57:49.072Z,92170.50
2023-03-13T23:00:21.569Z,92163.25
2023-03-13T23:02:54.385Z,92153.22
2023-03-13T23:05:26.670Z,92160.59
2023-03-13T23:07:59.768Z,92155.78
2023-03-13T23:10:32.216Z,92162.16
2023-03-13T23:13:04.787Z,92159.91
2023-03-13T23:15:54.777Z,92167.75
2023-03-13T23:18:27.949Z,92164.56
2023-03-13T23:21:04.854Z,92171.47
2023-03-13T23:23:38.072Z,92170.53
2023-03-13T23:26:12.379Z,92181.13
2023-03-13T23:28:44.722Z,92172.41
2023-03-13T23:31:18.987Z,92162.91
2023-03-13T23:33:51.286Z,92170.84
2023-03-13T23:36:23.560Z,92175.00
2023-03-13T23:38:57.604Z,92173.59
2023-03-13T23:41:30.113Z,92170.47
2023-03-13T23:44:02.404Z,92173.81
2023-03-13T23:46:35.473Z,92164.22
2023-03-13T23:49:07.796Z,92158.66
2023-03-13T23:51:40.068Z,92147.19
2023-03-13T23:54:13.044Z,92142.75
2023-03-13T23:56:45.314Z,92145.69
2023-03-13T23:59:17.981Z,92127.56
